createdAt,value
2023-04-18T00:00:40.280Z,1.83
2023-04-18T00:01:38.406Z,3.67
2023-04-18T00:02:36.655Z,2.80
2023-04-18T00:03:33.603Z,6.38
2023-04-18T00:04:30.374Z,2.83
2023-04-18T00:05:27.298Z,1.55
2023-04-18T00:06:23.963Z,1.58
2023-04-18T00:07:20.802Z,1.95
2023-04-18T00:08:17.449Z,2.42
2023-04-18T00:09:14.171Z,1.80
2023-04-18T00:10:10.963Z,2.05
2023-04-18T00:11:07.747Z,1.60
2023-04-18T00:12:04.965Z,2.17
2023-04-18T00:13:01.532Z,1.77
2023-04-18T00:13:59.432Z,2.28
2023-04-18T00:14:58.703Z,2.00
2023-04-18T00:15:55.423Z,1.65
2023-04-18T00:16:54.278Z,3.05
2023-04-18T00:17:51.038Z,9.43
2023-04-18T00:18:48.200Z,5.65
2023-04-18T00:19:44.756Z,2.08
2023-04-18T00:20:41.572Z,2.53
2023-04-18T00:21:39.415Z,2.58
2023-04-18T00:22:36.542Z,1.98
2023-04-18T00:23:34.379Z,1.90
2023-04-18T00:24:31.528Z,2.85
2023-04-18T00:25:28.219Z,3.63
2023-04-18T00:26:25.591Z,4.18
2023-04-18T00:27:22.221Z,4.60
2023-04-18T00:28:18.796Z,5.78
2023-04-18T00:29:15.432Z,3.25
2023-04-18T00:30:12.491Z,4.60
2023-04-18T00:31:09.145Z,3.90
2023-04-18T00:32:06.191Z,4.30
2023-04-18T00:33:04.321Z,6.63
2023-04-18T00:34:01.089Z,9.00
2023-04-18T00:34:57.718Z,4.70
2023-04-18T00:35:54.499Z,5.28
2023-04-18T00:36:51.070Z,5.95
2023-04-18T00:37:47.724Z,7.40
2023-04-18T00:38:44.301Z,6.28
2023-04-18T00:39:41.078Z,5.65
2023-04-18T00:40:38.354Z,4.93
2023-04-18T00:41:34.987Z,8.90
2023-04-18T00:42:31.888Z,7.93
2023-04-18T00:43:28.519Z,5.57
2023-04-18T00:44:25.208Z,5.85
2023-04-18T00:45:22.308Z,4.72
2023-04-18T00:46:18.934Z,10.50
2023-04-18T00:47:19.834Z,7.35
2023-04-18T00:48:17.224Z,7.80
2023-04-18T00:49:14.021Z,5.03
2023-04-18T00:50:11.321Z,7.35
2023-04-18T00:51:09.844Z,6.97
2023-04-18T00:52:06.631Z,7.20
2023-04-18T00:53:03.554Z,8.13
2023-04-18T00:54:00.660Z,6.25
2023-04-18T00:54:57.355Z,8.68
2023-04-18T00:55:53.949Z,10.10
2023-04-18T00:56:50.697Z,7.00
2023-04-18T00:57:47.319Z,6.97
2023-04-18T00:58:43.985Z,5.85
2023-04-18T00:59:40.855Z,7.25
2023-04-18T01:00:37.724Z,8.80
2023-04-18T01:01:34.346Z,5.28
2023-04-18T01:02:31.303Z,7.50
2023-04-18T01:03:28.562Z,6.05
2023-04-18T01:04:25.443Z,6.97
2023-04-18T01:05:23.485Z,7.25
2023-04-18T01:06:20.180Z,10.98
2023-04-18T01:07:16.811Z,7.57
2023-04-18T01:08:14.209Z,7.88
2023-04-18T01:09:11.262Z,7.72
2023-04-18T01:10:09.806Z,6.32
2023-04-18T01:11:06.492Z,6.53
2023-04-18T01:12:04.117Z,8.80
2023-04-18T01:13:14.987Z,6.82
2023-04-18T01:14:11.898Z,9.43
2023-04-18T01:15:08.884Z,7.55
2023-04-18T01:16:05.800Z,8.70
2023-04-18T01:17:02.781Z,6.60
2023-04-18T01:18:00.072Z,5.72
2023-04-18T01:18:57.115Z,7.28
2023-04-18T01:19:53.925Z,8.07
2023-04-18T01:20:52.065Z,6.03
2023-04-18T01:21:48.753Z,7.13
2023-04-18T01:22:45.538Z,11.25
2023-04-18T01:23:42.454Z,6.88
2023-04-18T01:24:39.458Z,8.65
2023-04-18T01:25:36.507Z,7.20
2023-04-18T01:26:33.251Z,9.35
2023-04-18T01:27:29.902Z,6.25
2023-04-18T01:28:27.810Z,8.93
2023-04-18T01:29:27.391Z,5.28
2023-04-18T01:30:24.026Z,4.38
2023-04-18T01:31:21.441Z,5.93
2023-04-18T01:32:20.209Z,7.95
2023-04-18T01:33:16.888Z,5.80
2023-04-18T01:34:14.706Z,5.55
2023-04-18T01:35:11.761Z,6.45
2023-04-18T01:36:08.387Z,5.25
2023-04-18T01:37:04.980Z,5.28
2023-04-18T01:38:01.714Z,7.40
2023-04-18T01:38:59.750Z,8.07
2023-04-18T01:39:58.215Z,5.88
2023-04-18T01:40:54.883Z,7.28
2023-04-18T01:41:51.485Z,5.30
2023-04-18T01:42:48.069Z,8.10
2023-04-18T01:43:44.650Z,7.25
2023-04-18T01:44:41.268Z,4.95
2023-04-18T01:45:37.889Z,5.50
2023-04-18T01:46:34.606Z,4.45
2023-04-18T01:47:31.325Z,4.65
2023-04-18T01:48:27.960Z,6.90
2023-04-18T01:49:24.658Z,7.90
2023-04-18T01:50:21.356Z,4.55
2023-04-18T01:51:18.034Z,6.50
2023-04-18T01:52:14.918Z,9.70
2023-04-18T01:53:11.557Z,5.22
2023-04-18T01:54:08.150Z,5.78
2023-04-18T01:55:06.125Z,5.18
2023-04-18T01:56:02.758Z,8.45
2023-04-18T01:56:59.371Z,3.65
2023-04-18T01:57:56.031Z,4.75
2023-04-18T01:58:52.693Z,2.72
2023-04-18T01:59:49.310Z,7.55
2023-04-18T02:00:45.984Z,5.50
2023-04-18T02:01:42.872Z,5.75
2023-04-18T02:02:39.672Z,8.55
2023-04-18T02:03:36.744Z,5.13
2023-04-18T02:04:33.603Z,4.53
2023-04-18T02:05:30.267Z,8.70
2023-04-18T02:06:26.948Z,8.98
2023-04-18T02:07:23.586Z,5.60
2023-04-18T02:08:20.318Z,5.15
2023-04-18T02:09:16.906Z,6.07
2023-04-18T02:10:13.556Z,5.47
2023-04-18T02:11:10.317Z,4.68
2023-04-18T02:12:07.172Z,4.75
2023-04-18T02:13:04.041Z,4.72
2023-04-18T02:14:00.871Z,6.13
2023-04-18T02:14:57.471Z,6.07
2023-04-18T02:15:54.025Z,6.45
2023-04-18T02:16:52.139Z,5.53
2023-04-18T02:17:51.227Z,8.15
2023-04-18T02:18:47.801Z,6.00
2023-04-18T02:19:44.382Z,9.27
2023-04-18T02:20:40.970Z,7.03
2023-04-18T02:21:37.625Z,9.68
2023-04-18T02:22:34.182Z,8.18
2023-04-18T02:23:30.833Z,7.05
2023-04-18T02:24:27.444Z,7.22
2023-04-18T02:25:26.945Z,8.00
2023-04-18T02:26:23.996Z,7.28
2023-04-18T02:27:20.761Z,10.73
2023-04-18T02:28:17.431Z,8.13
2023-04-18T02:29:14.006Z,10.50
2023-04-18T02:30:11.066Z,9.45
2023-04-18T02:31:14.388Z,7.85
2023-04-18T02:32:11.221Z,10.10
2023-04-18T02:33:07.907Z,9.90
2023-04-18T02:34:04.676Z,10.40
2023-04-18T02:35:01.586Z,8.85
2023-04-18T02:35:58.315Z,9.27
2023-04-18T02:36:54.893Z,8.27
2023-04-18T02:37:51.745Z,8.25
2023-04-18T02:38:48.357Z,11.05
2023-04-18T02:39:44.913Z,8.15
2023-04-18T02:40:41.621Z,9.73
2023-04-18T02:41:39.431Z,7.93
2023-04-18T02:42:36.463Z,6.80
2023-04-18T02:43:33.345Z,6.28
2023-04-18T02:44:29.964Z,6.90
2023-04-18T02:45:26.578Z,8.00
2023-04-18T02:46:23.242Z,7.68
2023-04-18T02:47:19.893Z,7.93
2023-04-18T02:48:16.594Z,5.93
2023-04-18T02:49:13.268Z,7.30
2023-04-18T02:50:10.382Z,5.95
2023-04-18T02:51:08.544Z,7.80
2023-04-18T02:52:05.267Z,9.18
2023-04-18T02:53:01.901Z,7.05
2023-04-18T02:53:58.666Z,10.95
2023-04-18T02:54:55.866Z,9.27
2023-04-18T02:55:52.465Z,5.22
2023-04-18T02:56:49.254Z,7.55
2023-04-18T02:57:45.884Z,6.82
2023-04-18T02:58:42.685Z,6.07
2023-04-18T02:59:39.311Z,4.90
2023-04-18T03:00:36.402Z,5.95
2023-04-18T03:01:33.597Z,5.63
2023-04-18T03:02:30.365Z,5.00
2023-04-18T03:03:26.988Z,4.28
2023-04-18T03:04:23.667Z,2.95
2023-04-18T03:05:20.541Z,3.88
2023-04-18T03:06:17.089Z,3.25
2023-04-18T03:07:13.856Z,2.40
2023-04-18T03:08:10.622Z,1.98
2023-04-18T03:09:07.439Z,3.83
2023-04-18T03:10:04.272Z,2.30
2023-04-18T03:11:00.962Z,2.20
2023-04-18T03:11:57.570Z,2.35
2023-04-18T03:12:54.185Z,2.20
2023-04-18T03:13:50.813Z,3.90
2023-04-18T03:14:47.511Z,3.33
2023-04-18T03:15:44.294Z,3.22
2023-04-18T03:16:41.066Z,4.60
2023-04-18T03:17:37.739Z,3.30
2023-04-18T03:18:34.395Z,3.00
2023-04-18T03:19:32.125Z,3.78
2023-04-18T03:20:28.921Z,2.30
2023-04-18T03:21:25.678Z,2.10
2023-04-18T03:22:22.347Z,2.08
2023-04-18T03:23:18.940Z,1.88
2023-04-18T03:24:15.899Z,1.55
2023-04-18T03:25:12.607Z,2.25
2023-04-18T03:26:09.402Z,1.90
2023-04-18T03:27:06.241Z,1.70
2023-04-18T03:28:02.825Z,1.85
2023-04-18T03:28:59.355Z,1.70
2023-04-18T03:29:55.963Z,1.77
2023-04-18T03:30:52.595Z,2.53
2023-04-18T03:31:49.413Z,1.60
2023-04-18T03:32:46.842Z,3.38
2023-04-18T03:33:44.313Z,3.47
2023-04-18T03:34:41.094Z,1.40
2023-04-18T03:35:37.827Z,2.70
2023-04-18T03:36:34.557Z,2.17
2023-04-18T03:37:31.084Z,1.70
2023-04-18T03:38:27.840Z,2.45
2023-04-18T03:39:24.421Z,1.45
2023-04-18T03:40:21.082Z,1.40
2023-04-18T03:41:17.639Z,1.58
2023-04-18T03:42:14.195Z,1.23
2023-04-18T03:43:11.025Z,1.33
2023-04-18T03:44:07.629Z,1.42
2023-04-18T03:45:04.501Z,2.05
2023-04-18T03:46:01.243Z,2.80
2023-04-18T03:46:58.097Z,1.20
2023-04-18T03:47:54.975Z,2.47
2023-04-18T03:48:51.637Z,1.70
2023-04-18T03:49:48.286Z,1.58
2023-04-18T03:50:45.009Z,1.60
2023-04-18T03:51:44.575Z,1.77
2023-04-18T03:52:41.205Z,2.65
2023-04-18T03:53:37.750Z,0.95
2023-04-18T03:54:34.361Z,1.30
2023-04-18T03:55:31.019Z,1.40
2023-04-18T03:56:27.693Z,2.47
2023-04-18T03:57:24.280Z,1.35
2023-04-18T03:58:23.781Z,2.47
2023-04-18T03:59:20.479Z,1.38
2023-04-18T04:00:17.260Z,2.50
2023-04-18T04:01:13.903Z,2.05
2023-04-18T04:02:10.638Z,2.38
2023-04-18T04:03:07.634Z,2.65
2023-04-18T04:04:04.919Z,2.80
2023-04-18T04:05:03.253Z,3.33
2023-04-18T04:06:00.032Z,2.67
2023-04-18T04:06:56.925Z,5.18
2023-04-18T04:07:53.526Z,1.80
2023-04-18T04:08:50.270Z,2.28
2023-04-18T04:09:46.891Z,4.50
2023-04-18T04:10:43.500Z,2.50
2023-04-18T04:11:40.553Z,3.90
2023-04-18T04:12:37.125Z,2.08
2023-04-18T04:13:33.765Z,3.03
2023-04-18T04:14:30.672Z,2.03
2023-04-18T04:15:27.252Z,2.05
2023-04-18T04:16:23.913Z,2.38
2023-04-18T04:17:20.754Z,2.80
2023-04-18T04:18:17.392Z,4.57
2023-04-18T04:19:14.986Z,2.55
2023-04-18T04:20:12.170Z,2.60
2023-04-18T04:21:08.759Z,3.65
2023-04-18T04:22:05.515Z,2.78
2023-04-18T04:23:02.217Z,3.22
2023-04-18T04:23:58.861Z,2.67
2023-04-18T04:24:57.801Z,5.72
2023-04-18T04:25:54.993Z,3.92
2023-04-18T04:26:51.696Z,2.58
2023-04-18T04:27:49.719Z,2.95
2023-04-18T04:28:46.710Z,2.72
2023-04-18T04:29:43.728Z,2.30
2023-04-18T04:30:41.661Z,2.03
2023-04-18T04:31:38.362Z,2.47
2023-04-18T04:32:35.609Z,2.20
2023-04-18T04:33:33.355Z,2.00
2023-04-18T04:34:29.930Z,3.17
2023-04-18T04:35:26.781Z,2.97
2023-04-18T04:36:27.294Z,4.65
2023-04-18T04:37:24.468Z,1.80
2023-04-18T04:38:23.114Z,2.40
2023-04-18T04:39:19.764Z,2.60
2023-04-18T04:40:17.615Z,2.38
2023-04-18T04:41:14.277Z,2.65
2023-04-18T04:42:12.241Z,2.30
2023-04-18T04:43:12.766Z,2.70
2023-04-18T04:44:09.782Z,4.15
2023-04-18T04:45:08.273Z,6.57
2023-04-18T04:46:04.943Z,3.97
2023-04-18T04:47:01.604Z,3.50
2023-04-18T04:47:58.252Z,4.22
2023-04-18T04:48:54.861Z,4.60
2023-04-18T04:49:51.541Z,4.35
2023-04-18T04:50:56.154Z,3.28
2023-04-18T04:51:52.907Z,3.55
2023-04-18T04:52:49.947Z,3.97
2023-04-18T04:53:46.569Z,3.75
2023-04-18T04:54:44.982Z,3.75
2023-04-18T04:55:41.966Z,3.47
2023-04-18T04:56:38.575Z,3.55
2023-04-18T04:57:35.868Z,5.07
2023-04-18T04:58:32.585Z,6.15
2023-04-18T04:59:29.186Z,2.97
2023-04-18T05:00:25.978Z,3.13
2023-04-18T05:01:22.803Z,2.53
2023-04-18T05:02:23.251Z,2.50
2023-04-18T05:03:20.045Z,1.70
2023-04-18T05:04:17.486Z,2.20
2023-04-18T05:05:14.743Z,2.45
2023-04-18T05:06:11.452Z,5.65
2023-04-18T05:07:08.015Z,2.13
2023-04-18T05:08:05.016Z,2.20
2023-04-18T05:09:01.635Z,4.82
2023-04-18T05:09:58.363Z,2.00
2023-04-18T05:10:55.628Z,1.98
2023-04-18T05:11:52.205Z,1.70
2023-04-18T05:12:49.240Z,1.83
2023-04-18T05:13:45.796Z,1.75
2023-04-18T05:14:42.408Z,2.88
2023-04-18T05:15:39.607Z,1.73
2023-04-18T05:16:36.543Z,1.95
2023-04-18T05:17:33.289Z,2.53
2023-04-18T05:18:29.878Z,1.75
2023-04-18T05:19:27.279Z,1.70
2023-04-18T05:20:24.390Z,3.50
2023-04-18T05:21:20.983Z,1.60
2023-04-18T05:22:17.650Z,3.10
2023-04-18T05:23:14.306Z,2.08
2023-04-18T05:24:11.284Z,1.83
2023-04-18T05:25:08.423Z,2.25
2023-04-18T05:26:05.623Z,1.58
2023-04-18T05:27:02.427Z,1.60
2023-04-18T05:28:00.450Z,3.65
2023-04-18T05:28:57.088Z,1.98
2023-04-18T05:29:53.728Z,1.30
2023-04-18T05:30:51.105Z,1.13
2023-04-18T05:31:47.741Z,1.85
2023-04-18T05:32:44.544Z,2.08
2023-04-18T05:33:41.148Z,2.15
2023-04-18T05:34:38.878Z,5.57
2023-04-18T05:35:35.780Z,1.60
2023-04-18T05:36:32.400Z,1.23
2023-04-18T05:37:29.037Z,3.10
2023-04-18T05:38:25.907Z,3.25
2023-04-18T05:39:22.529Z,2.85
2023-04-18T05:40:19.150Z,3.00
2023-04-18T05:41:15.972Z,3.00
2023-04-18T05:42:12.512Z,3.72
2023-04-18T05:43:09.074Z,6.13
2023-04-18T05:44:17.053Z,2.85
2023-04-18T05:45:13.871Z,2.65
2023-04-18T05:46:10.728Z,4.70
2023-04-18T05:47:07.312Z,4.97
2023-04-18T05:48:04.215Z,3.28
2023-04-18T05:49:01.462Z,3.20
2023-04-18T05:49:58.072Z,2.08
2023-04-18T05:50:54.648Z,2.40
2023-04-18T05:51:52.973Z,2.30
2023-04-18T05:52:49.970Z,4.47
2023-04-18T05:53:46.554Z,2.00
2023-04-18T05:54:43.072Z,1.80
2023-04-18T05:55:41.072Z,1.90
2023-04-18T05:56:39.686Z,4.18
2023-04-18T05:57:36.403Z,1.20
2023-04-18T05:58:33.021Z,4.90
2023-04-18T05:59:29.863Z,3.30
2023-04-18T06:00:26.972Z,1.60
2023-04-18T06:01:23.860Z,3.40
2023-04-18T06:02:21.157Z,2.88
2023-04-18T06:03:18.049Z,4.40
2023-04-18T06:04:16.461Z,3.53
2023-04-18T06:05:13.668Z,2.80
2023-04-18T06:06:11.363Z,2.72
2023-04-18T06:07:09.141Z,3.67
2023-04-18T06:08:06.080Z,3.85
2023-04-18T06:09:02.934Z,5.57
2023-04-18T06:09:59.604Z,6.85
2023-04-18T06:10:56.175Z,5.22
2023-04-18T06:11:52.816Z,5.18
2023-04-18T06:12:49.787Z,7.18
2023-04-18T06:13:46.377Z,8.27
2023-04-18T06:14:42.963Z,6.93
2023-04-18T06:15:39.758Z,7.55
2023-04-18T06:16:37.726Z,9.68
2023-04-18T06:17:35.162Z,12.15
2023-04-18T06:18:31.760Z,10.90
2023-04-18T06:19:28.375Z,11.70
2023-04-18T06:20:24.963Z,12.32
2023-04-18T06:21:22.208Z,11.27
2023-04-18T06:22:18.878Z,11.32
2023-04-18T06:23:15.718Z,10.55
2023-04-18T06:24:12.558Z,12.30
2023-04-18T06:25:10.229Z,10.80
2023-04-18T06:26:07.433Z,12.88
2023-04-18T06:27:05.403Z,12.88
2023-04-18T06:28:02.034Z,10.57
2023-04-18T06:28:58.756Z,12.50
2023-04-18T06:29:55.396Z,12.95
2023-04-18T06:30:52.014Z,13.07
2023-04-18T06:31:49.356Z,12.43
2023-04-18T06:32:45.991Z,14.68
2023-04-18T06:33:42.569Z,9.82
2023-04-18T06:34:40.623Z,9.52
2023-04-18T06:35:37.675Z,11.20
2023-04-18T06:36:34.348Z,12.07
2023-04-18T06:37:30.981Z,12.73
2023-04-18T06:38:27.598Z,13.93
2023-04-18T06:39:24.741Z,10.55
2023-04-18T06:40:21.496Z,8.85
2023-04-18T06:41:18.107Z,8.63
2023-04-18T06:42:14.654Z,10.70
2023-04-18T06:43:11.313Z,10.27
2023-04-18T06:44:07.914Z,9.82
2023-04-18T06:45:06.492Z,9.25
2023-04-18T06:46:04.975Z,11.63
2023-04-18T06:47:01.661Z,8.73
2023-04-18T06:47:59.790Z,11.02
2023-04-18T06:48:56.540Z,11.20
2023-04-18T06:49:53.149Z,12.00
2023-04-18T06:50:50.055Z,10.35
2023-04-18T06:51:46.696Z,10.00
2023-04-18T06:52:45.989Z,10.27
2023-04-18T06:53:42.755Z,10.48
2023-04-18T06:54:39.288Z,8.90
2023-04-18T06:55:36.075Z,10.55
2023-04-18T06:56:36.269Z,10.23
2023-04-18T06:57:33.267Z,9.68
2023-04-18T06:58:30.323Z,10.98
2023-04-18T06:59:26.964Z,8.55
2023-04-18T07:00:23.535Z,10.02
2023-04-18T07:01:20.351Z,9.15
2023-04-18T07:02:17.036Z,10.20
2023-04-18T07:03:13.855Z,9.95
2023-04-18T07:04:11.113Z,9.73
2023-04-18T07:05:08.155Z,13.50
2023-04-18T07:06:05.817Z,9.30
2023-04-18T07:07:03.896Z,12.38
2023-04-18T07:08:00.708Z,9.38
2023-04-18T07:09:00.985Z,9.85
2023-04-18T07:09:57.613Z,10.70
2023-04-18T07:10:54.259Z,9.38
2023-04-18T07:11:52.580Z,10.77
2023-04-18T07:12:52.065Z,9.77
2023-04-18T07:13:50.397Z,11.07
2023-04-18T07:14:47.027Z,11.02
2023-04-18T07:15:43.915Z,12.02
2023-04-18T07:16:40.625Z,11.35
2023-04-18T07:17:37.281Z,8.57
2023-04-18T07:18:37.951Z,8.80
2023-04-18T07:19:35.078Z,9.50
2023-04-18T07:20:31.668Z,8.18
2023-04-18T07:21:28.394Z,10.27
2023-04-18T07:22:25.024Z,9.30
2023-04-18T07:23:21.642Z,7.78
2023-04-18T07:24:18.224Z,9.77
2023-04-18T07:25:14.802Z,8.07
2023-04-18T07:26:13.361Z,8.68
2023-04-18T07:27:09.904Z,8.55
2023-04-18T07:28:06.470Z,9.00
2023-04-18T07:29:03.086Z,7.78
2023-04-18T07:29:59.660Z,6.43
2023-04-18T07:30:57.008Z,5.13
2023-04-18T07:31:53.688Z,4.53
2023-04-18T07:32:50.475Z,3.85
2023-04-18T07:33:47.156Z,3.47
2023-04-18T07:34:45.155Z,5.13
2023-04-18T07:35:41.897Z,2.97
2023-04-18T07:36:38.519Z,4.35
2023-04-18T07:37:35.222Z,5.63
2023-04-18T07:38:33.729Z,3.83
2023-04-18T07:39:31.962Z,3.50
2023-04-18T07:40:28.604Z,2.60
2023-04-18T07:41:25.149Z,2.70
2023-04-18T07:42:21.766Z,3.05
2023-04-18T07:43:19.813Z,3.15
2023-04-18T07:44:18.282Z,3.60
2023-04-18T07:45:15.564Z,4.13
2023-04-18T07:46:12.285Z,2.80
2023-04-18T07:47:12.156Z,4.30
2023-04-18T07:48:08.817Z,3.25
2023-04-18T07:49:05.474Z,3.05
2023-04-18T07:50:02.918Z,3.50
2023-04-18T07:50:59.709Z,3.05
2023-04-18T07:51:56.347Z,4.53
2023-04-18T07:52:53.054Z,3.22
2023-04-18T07:53:49.591Z,3.45
2023-04-18T07:54:46.437Z,5.95
2023-04-18T07:55:45.726Z,3.33
2023-04-18T07:56:42.288Z,5.75
2023-04-18T07:57:38.898Z,4.40
2023-04-18T07:58:36.040Z,4.72
2023-04-18T07:59:33.062Z,5.03
2023-04-18T08:00:32.586Z,5.05
2023-04-18T08:01:29.245Z,5.28
2023-04-18T08:02:25.970Z,5.70
2023-04-18T08:03:22.806Z,10.30
2023-04-18T08:04:19.849Z,8.20
2023-04-18T08:05:16.711Z,6.78
2023-04-18T08:06:13.292Z,6.63
2023-04-18T08:07:09.865Z,8.60
2023-04-18T08:08:08.122Z,7.72
2023-04-18T08:09:05.986Z,8.07
2023-04-18T08:10:03.422Z,7.53
2023-04-18T08:11:00.093Z,10.57
2023-04-18T08:11:57.950Z,7.28
2023-04-18T08:12:54.600Z,11.40
2023-04-18T08:13:51.219Z,10.95
2023-04-18T08:14:48.115Z,11.38
2023-04-18T08:15:44.726Z,12.65
2023-04-18T08:16:41.503Z,11.15
2023-04-18T08:17:39.110Z,13.93
2023-04-18T08:18:36.043Z,11.95
2023-04-18T08:19:32.667Z,11.88
2023-04-18T08:20:29.390Z,15.43
2023-04-18T08:21:26.847Z,12.57
2023-04-18T08:22:23.502Z,12.65
2023-04-18T08:23:20.163Z,16.38
2023-04-18T08:24:16.757Z,12.77
2023-04-18T08:25:13.390Z,12.60
2023-04-18T08:26:10.206Z,11.77
2023-04-18T08:27:07.053Z,12.77
2023-04-18T08:28:04.190Z,15.13
2023-04-18T08:29:00.940Z,11.15
2023-04-18T08:29:58.250Z,10.55
2023-04-18T08:30:56.565Z,12.98
2023-04-18T08:31:53.283Z,13.73
2023-04-18T08:32:49.982Z,11.60
2023-04-18T08:33:46.624Z,14.52
2023-04-18T08:34:43.510Z,10.63
2023-04-18T08:35:40.137Z,8.93
2023-04-18T08:36:36.767Z,5.43
2023-04-18T08:37:35.424Z,4.75
2023-04-18T08:38:32.044Z,3.53
2023-04-18T08:39:28.691Z,3.22
2023-04-18T08:40:25.438Z,2.50
2023-04-18T08:41:25.153Z,2.42
2023-04-18T08:42:23.684Z,1.60
2023-04-18T08:43:20.432Z,1.70
2023-04-18T08:44:17.644Z,1.48
2023-04-18T08:45:14.705Z,1.30
2023-04-18T08:46:11.773Z,1.67
2023-04-18T08:47:09.597Z,1.88
2023-04-18T08:48:07.708Z,1.40
2023-04-18T08:49:06.281Z,1.33
2023-04-18T08:50:03.357Z,4.47
2023-04-18T08:51:01.615Z,2.88
2023-04-18T08:52:01.470Z,2.10
2023-04-18T08:52:59.730Z,3.55
2023-04-18T08:53:56.937Z,6.45
2023-04-18T08:54:53.533Z,4.85
2023-04-18T08:55:57.321Z,6.70
2023-04-18T08:57:07.590Z,5.45
2023-04-18T08:58:08.005Z,2.50
2023-04-18T08:59:05.444Z,2.58
2023-04-18T09:00:02.116Z,1.70
2023-04-18T09:00:58.790Z,2.88
2023-04-18T09:01:57.639Z,2.47
2023-04-18T09:02:56.936Z,2.47
2023-04-18T09:03:55.212Z,1.70
2023-04-18T09:04:55.839Z,1.80
2023-04-18T09:06:13.938Z,1.88
2023-04-18T09:07:15.896Z,2.33
2023-04-18T09:08:24.101Z,1.67
2023-04-18T09:09:27.430Z,0.88
2023-04-18T09:10:28.977Z,5.72
2023-04-18T09:11:29.016Z,0.75
2023-04-18T09:12:29.703Z,1.20
2023-04-18T09:13:47.469Z,1.30
2023-04-18T09:14:47.936Z,0.80
2023-04-18T09:15:54.998Z,1.05
2023-04-18T09:16:51.864Z,1.20
2023-04-18T09:17:51.153Z,1.10
2023-04-18T09:19:10.939Z,1.33
2023-04-18T09:20:11.823Z,2.67
2023-04-18T09:21:19.491Z,1.17
2023-04-18T09:22:17.786Z,1.10
2023-04-18T09:23:24.537Z,1.23
2023-04-18T09:24:24.750Z,1.25
2023-04-18T09:25:34.989Z,1.80
2023-04-18T09:26:36.277Z,1.20
2023-04-18T09:27:34.968Z,2.92
2023-04-18T09:28:33.269Z,1.80
2023-04-18T09:29:46.242Z,1.60
2023-04-18T09:30:43.192Z,2.08
2023-04-18T09:32:01.774Z,1.67
2023-04-18T09:33:04.968Z,1.60
2023-04-18T09:34:03.065Z,1.73
2023-04-18T09:35:04.578Z,1.70
2023-04-18T09:36:18.713Z,1.48
2023-04-18T09:37:15.537Z,1.52
2023-04-18T09:38:12.187Z,1.75
2023-04-18T09:39:08.766Z,1.88
2023-04-18T09:40:18.003Z,1.60
2023-04-18T09:41:21.192Z,1.95
2023-04-18T09:42:18.953Z,1.80
2023-04-18T09:43:21.924Z,3.47
2023-04-18T09:44:20.354Z,1.63
2023-04-18T09:45:17.278Z,1.63
2023-04-18T09:46:15.381Z,1.70
2023-04-18T09:47:11.988Z,1.77
2023-04-18T09:48:08.610Z,3.47
2023-04-18T09:49:05.323Z,2.40
2023-04-18T09:50:07.194Z,3.05
2023-04-18T09:51:11.589Z,1.92
2023-04-18T09:52:08.893Z,2.08
2023-04-18T09:53:08.066Z,1.90
2023-04-18T09:54:05.557Z,2.15
2023-04-18T09:55:04.984Z,2.00
2023-04-18T09:56:03.465Z,2.55
2023-04-18T09:57:02.905Z,1.98
2023-04-18T09:58:00.887Z,2.53
2023-04-18T09:59:11.403Z,2.00
2023-04-18T10:00:13.987Z,2.38
2023-04-18T10:01:13.351Z,2.03
2023-04-18T10:02:19.735Z,3.35
2023-04-18T10:03:18.571Z,1.70
2023-04-18T10:04:17.433Z,2.55
2023-04-18T10:05:15.021Z,2.17
2023-04-18T10:06:11.868Z,2.97
2023-04-18T10:07:08.769Z,2.58
2023-04-18T10:08:06.906Z,2.33
2023-04-18T10:09:04.853Z,2.30
2023-04-18T10:10:01.429Z,2.35
2023-04-18T10:10:58.751Z,2.10
2023-04-18T10:11:56.951Z,2.25
2023-04-18T10:12:55.805Z,1.98
2023-04-18T10:13:57.531Z,3.63
2023-04-18T10:14:54.904Z,1.92
2023-04-18T10:15:52.486Z,2.17
2023-04-18T10:16:50.618Z,1.88
2023-04-18T10:18:04.524Z,2.55
2023-04-18T10:19:24.877Z,1.80
2023-04-18T10:20:24.197Z,1.88
2023-04-18T10:21:21.711Z,2.90
2023-04-18T10:22:27.569Z,1.88
2023-04-18T10:23:36.308Z,1.80
2023-04-18T10:24:56.222Z,1.55
2023-04-18T10:25:53.261Z,1.58
2023-04-18T10:26:50.488Z,3.72
2023-04-18T10:27:49.774Z,1.48
2023-04-18T10:28:49.683Z,1.55
2023-04-18T10:29:53.884Z,1.70
2023-04-18T10:31:04.217Z,2.72
2023-04-18T10:32:06.376Z,1.90
2023-04-18T10:34:23.933Z,1.70
2023-04-18T10:35:21.214Z,3.00
2023-04-18T10:36:20.581Z,1.52
2023-04-18T10:37:19.016Z,1.50
2023-04-18T10:38:23.529Z,1.45
2023-04-18T10:39:25.577Z,1.80
2023-04-18T10:40:34.242Z,1.70
2023-04-18T10:41:32.555Z,1.50
2023-04-18T10:42:47.378Z,1.60
2023-04-18T10:44:13.236Z,1.70
2023-04-18T10:45:27.269Z,1.70
2023-04-18T10:46:31.862Z,3.22
2023-04-18T10:47:29.706Z,2.40
2023-04-18T10:48:32.730Z,4.43
2023-04-18T10:49:32.849Z,1.42
2023-04-18T10:50:29.836Z,1.33
2023-04-18T10:51:26.559Z,1.60
2023-04-18T10:52:23.732Z,1.65
2023-04-18T10:53:20.585Z,1.30
2023-04-18T10:54:21.866Z,1.80
2023-04-18T10:55:28.441Z,1.55
2023-04-18T10:56:26.229Z,2.60
2023-04-18T10:57:23.022Z,3.17
2023-04-18T10:58:19.703Z,1.50
2023-04-18T10:59:16.587Z,1.70
2023-04-18T11:00:16.702Z,1.90
2023-04-18T11:01:16.002Z,1.48
2023-04-18T11:02:32.604Z,1.63
2023-04-18T11:03:35.685Z,1.50
2023-04-18T11:04:32.688Z,1.25
2023-04-18T11:05:29.606Z,1.58
2023-04-18T11:06:27.762Z,1.52
2023-04-18T11:07:42.304Z,1.75
2023-04-18T11:08:38.877Z,1.90
2023-04-18T11:09:35.529Z,2.00
2023-04-18T11:10:32.192Z,1.45
2023-04-18T11:11:28.736Z,1.60
2023-04-18T11:12:30.754Z,1.10
2023-04-18T11:13:27.372Z,1.77
2023-04-18T11:14:24.214Z,1.60
2023-04-18T11:15:23.590Z,1.67
2023-04-18T11:16:30.458Z,3.42
2023-04-18T11:17:35.867Z,1.48
2023-04-18T11:18:42.085Z,1.45
2023-04-18T11:19:38.729Z,1.20
2023-04-18T11:20:39.743Z,1.38
2023-04-18T11:21:36.366Z,1.40
2023-04-18T11:22:33.082Z,1.33
2023-04-18T11:23:29.778Z,1.40
2023-04-18T11:24:26.631Z,1.40
2023-04-18T11:25:30.810Z,3.63
2023-04-18T11:26:29.040Z,1.38
2023-04-18T11:27:26.952Z,1.55
2023-04-18T11:28:25.054Z,1.60
2023-04-18T11:29:21.919Z,1.60
2023-04-18T11:30:19.015Z,2.40
2023-04-18T11:31:16.094Z,1.90
2023-04-18T11:32:12.822Z,1.38
2023-04-18T11:33:11.752Z,1.05
2023-04-18T11:34:08.430Z,3.10
2023-04-18T11:35:05.618Z,1.42
2023-04-18T11:36:02.706Z,1.40
2023-04-18T11:37:00.315Z,1.38
2023-04-18T11:37:56.973Z,1.30
2023-04-18T11:38:55.184Z,1.45
2023-04-18T11:39:55.140Z,1.20
2023-04-18T11:40:51.732Z,1.42
2023-04-18T11:41:51.366Z,1.33
2023-04-18T11:42:48.037Z,1.27
2023-04-18T11:43:46.598Z,1.77
2023-04-18T11:44:46.491Z,1.20
2023-04-18T11:45:54.561Z,1.00
2023-04-18T11:46:51.977Z,1.20
2023-04-18T11:47:48.631Z,1.25
2023-04-18T11:48:45.633Z,1.25
2023-04-18T11:49:42.262Z,1.48
2023-04-18T11:50:38.936Z,2.45
2023-04-18T11:51:38.426Z,1.30
2023-04-18T11:52:36.445Z,1.30
2023-04-18T11:53:34.605Z,1.10
2023-04-18T11:54:42.496Z,2.30
2023-04-18T11:55:39.209Z,1.30
2023-04-18T11:56:36.929Z,1.30
2023-04-18T11:57:33.642Z,1.75
2023-04-18T11:58:36.805Z,1.15
2023-04-18T11:59:33.699Z,1.30
2023-04-18T12:00:39.292Z,2.38
2023-04-18T12:01:36.208Z,2.22
2023-04-18T12:02:42.645Z,1.88
2023-04-18T12:03:39.693Z,1.50
2023-04-18T12:04:56.943Z,1.73
2023-04-18T12:06:03.442Z,1.63
2023-04-18T12:07:00.949Z,2.92
2023-04-18T12:08:09.781Z,1.48
2023-04-18T12:09:06.456Z,1.60
2023-04-18T12:10:24.688Z,1.40
2023-04-18T12:11:21.710Z,1.42
2023-04-18T12:12:19.353Z,2.75
2023-04-18T12:13:17.396Z,1.50
2023-04-18T12:14:21.853Z,2.72
2023-04-18T12:15:18.834Z,3.55
2023-04-18T12:16:15.528Z,4.80
2023-04-18T12:17:13.439Z,1.60
2023-04-18T12:18:12.560Z,2.70
2023-04-18T12:19:11.318Z,2.00
2023-04-18T12:20:10.635Z,1.58
2023-04-18T12:21:07.469Z,1.90
2023-04-18T12:22:07.974Z,3.47
2023-04-18T12:23:05.348Z,2.78
2023-04-18T12:24:13.900Z,1.40
2023-04-18T12:25:23.582Z,1.48
2023-04-18T12:26:23.692Z,3.28
2023-04-18T12:27:20.308Z,1.48
2023-04-18T12:28:17.571Z,2.35
2023-04-18T12:29:14.412Z,1.25
2023-04-18T12:30:11.935Z,2.38
2023-04-18T12:31:08.681Z,1.30
2023-04-18T12:32:05.481Z,1.02
2023-04-18T12:33:04.145Z,1.25
2023-04-18T12:34:00.819Z,1.40
2023-04-18T12:34:57.615Z,1.10
2023-04-18T12:35:54.340Z,1.20
2023-04-18T12:36:51.140Z,2.40
2023-04-18T12:37:51.323Z,1.48
2023-04-18T12:38:49.165Z,1.17
2023-04-18T12:39:45.724Z,2.83
2023-04-18T12:40:42.263Z,1.27
2023-04-18T12:41:38.906Z,1.23
2023-04-18T12:42:35.666Z,1.42
2023-04-18T12:43:32.616Z,1.55
2023-04-18T12:44:29.272Z,1.27
2023-04-18T12:45:26.089Z,2.88
2023-04-18T12:46:22.765Z,1.58
2023-04-18T12:47:19.465Z,1.40
2023-04-18T12:48:16.277Z,2.28
2023-04-18T12:49:12.929Z,1.35
2023-04-18T12:50:11.637Z,1.70
2023-04-18T12:51:08.424Z,1.70
2023-04-18T12:52:05.262Z,1.58
2023-04-18T12:53:02.371Z,1.63